• Join FlightAware (Why Join?)
  • Login
  • US Flag 
10:02AM EDT


 

Airport Tracker/Info


-or-


 

Live Flight TrackerFlight Track Log ✈ CRQ102 ✈ 09-Oct-2013 ✈ CYMT - CYVO

Flight Track Log - Related Links

Times and Time Zones

All times are in EDT time to prevent confusion due to time zone crossing. See the CRQ102 flight status page for this flight to view local times or setup timezone preferences in your user account.

Time Position Orientation Groundspeed Altitude Reporting Facility
EDT Latitude Longitude Course Direction KTS MPH feet Rate Location/Type
08:24PM 49.6667 -74.7500 234° Southwest 170 196 7,100  Level Montreal Center
08:25PM 49.6333 -74.8167 232° Southwest 170 196 8,100 900 Climbing Montreal Center
08:26PM 49.6000 -74.8833 232° Southwest 170 196 9,000 840 Climbing Montreal Center
08:27PM 49.5833 -74.9333 243° Southwest 170 196 9,800 720 Climbing Montreal Center
08:28PM 49.5500 -75.0000 232° Southwest 170 196 10,500 720 Climbing Montreal Center
08:29PM 49.5167 -75.0667 232° Southwest 170 196 11,300 840 Climbing Montreal Center
08:30PM 49.5000 -75.1167 243° Southwest 160 184 12,200 720 Climbing Montreal Center
08:31PM 49.4667 -75.1667 224° Southwest 160 184 12,800 600 Climbing Montreal Center
08:32PM 49.4500 -75.2167 243° Southwest 160 184 13,500 540 Climbing Montreal Center
08:33PM 49.4167 -75.2667 224° Southwest 160 184 13,900 180 Climbing Montreal Center
08:34PM 49.4000 -75.3500 253° West 170 196 13,900  Level Montreal Center
08:35PM 49.3667 -75.4000 224° Southwest 180 207 13,900  Level Montreal Center
08:36PM 49.3333 -75.4500 224° Southwest 180 207 14,000  Climbing Montreal Center
08:37PM 49.3000 -75.5333 238° Southwest 180 207 14,000  Level Montreal Center
08:38PM 49.2667 -75.5833 224° Southwest 190 219 14,000  Level Montreal Center
08:39PM 49.2333 -75.6500 233° Southwest 190 219 14,000  Level Montreal Center
08:40PM 49.2000 -75.7167 233° Southwest 190 219 14,000 -60 Level Montreal Center
08:41PM 49.1833 -75.7833 249° West 190 219 13,900 -60 Descending Montreal Center
08:42PM 49.1500 -75.8667 239° Southwest 190 219 13,900  Level Montreal Center
08:43PM 49.1167 -75.9167 224° Southwest 190 219 14,000  Climbing Montreal Center
08:44PM 49.0833 -75.9667 225° Southwest 190 219 13,900 -120 Descending Montreal Center
08:45PM 49.0500 -76.0500 239° Southwest 190 219 13,800 -60 Descending Montreal Center
08:46PM 49.0167 -76.1000 225° Southwest 190 219 13,800  Level Montreal Center
08:47PM 48.9833 -76.1667 233° Southwest 190 219 13,800  Level Montreal Center
08:48PM 48.9500 -76.2167 225° Southwest 190 219 13,900  Climbing Montreal Center
08:49PM 48.9167 -76.3000 239° Southwest 190 219 13,800 -60 Descending Montreal Center
08:50PM 48.8833 -76.3500 225° Southwest 190 219 13,800  Level Montreal Center
08:51PM 48.8500 -76.4000 225° Southwest 190 219 13,900  Climbing Montreal Center
08:52PM 48.8167 -76.4833 239° Southwest 190 219 13,900  Level Montreal Center
08:53PM 48.7833 -76.5333 225° Southwest 190 219 13,900  Level Montreal Center
08:54PM 48.7500 -76.6000 233° Southwest 190 219 13,900 -60 Level Montreal Center
08:55PM 48.7167 -76.6500 225° Southwest 190 219 13,800  Descending Montreal Center
08:56PM 48.6833 -76.7000 225° Southwest 190 219 13,900  Climbing Montreal Center
08:57PM 48.6500 -76.7833 239° Southwest 190 219 13,800 -60 Descending Montreal Center
08:58PM 48.6000 -76.8333 213° Southwest 190 219 13,800  Level Montreal Center
08:59PM 48.5667 -76.8833 225° Southwest 190 219 13,900 60 Climbing Montreal Center
09:00PM 48.5333 -76.9500 233° Southwest 190 219 14,000  Climbing Montreal Center
09:01PM 48.4833 -77.0000 214° Southwest 190 219 14,000  Level Montreal Center
09:02PM 48.4500 -77.0500 225° Southwest 190 219 14,100  Climbing Montreal Center
09:03PM 48.4167 -77.1333 239° Southwest 190 219 14,000 -240 Descending Montreal Center
09:04PM 48.3833 -77.1833 225° Southwest 190 219 13,700 -900 Descending Montreal Center
09:05PM 48.3500 -77.2500 233° Southwest 210 242 12,200 -1,140 Descending Montreal Center
09:06PM 48.3167 -77.3333 239° Southwest 220 253 11,500 -720 Descending Montreal Center
09:08PM 48.2503 -77.3995 233° Southwest  Level FlightAware Approximate
09:15PM 48.0500 -77.7667 214° Southwest  Level FlightAware Approximate
09:16PM 48.0533 -77.7828 214° Southwest  Level Estimated
09:17PM 48.0533 -77.7828 214° Southwest  Level Estimated
09:18PM 48.0533 -77.7828 214° Southwest  Level Estimated
09:19PM 48.0533 -77.7828 214° Southwest  Level Estimated
09:20PM 48.0533 -77.7828 214° Southwest  Level Estimated